Stanhope, NJ

5:00 AM EDT on October 24, 2014 (GMT -0400)
Stanhope,NJ | Change Station
CLOSE
Current Station
Personal Weather Station
Location: Stanhope, NJ
Elevation: 970 ft
Nearby Weather Stations

Elev 970 ft 40.91 °N, 74.70 °W | Updated 1 minute ago

Overcast
Overcast
46.8 °F
Feels Like 47 °F
N
2.0
Wind Variable Wind from NW
Gusts 2.0 mph

Today
High -- | Low -- °F
--% Chance of Precip.
Yesterday
High -- | Low -- °F
Precip. -- in
7:20 AM 6:05 PM
New Moon, 0% visible
Pressure 29.81 in
Visibility 10.0 miles
Clouds Scattered Clouds 2300 ft
Windchill 47 °F
Dew Point 44 °F
Humidity 90%
Rainfall 0.00 in
Snow Depth Not available.
UV 0 out of 12
Pollen .30 out of 12
Air Quality Not available.
Flu Activity Not available.
METAR KMMU 240855Z AUTO 32008KT 10SM SCT023 11/06 A2981 RMK AO2

More Conditions Fewer Conditions

Pressure 29.81 in
Visibility 10.0 miles
Clouds Scattered Clouds 2300 ft
Windchill 47 °F
Dew Point 44 °F
Humidity 90%
Rainfall 0.00 in
Snow Depth Not available.
UV 0 out of 12
Pollen .30 out of 12
Air Quality Not available.
Flu Activity Not available.
METAR KMMU 240855Z AUTO 32008KT 10SM SCT023 11/06 A2981 RMK AO2

More Conditions Fewer Conditions

10-Day Weather Forecast

Almanac

Astronomy

Oct. 24, 2014 Rise Set
Actual Time 7:20 AM EDT 6:05 PM EDT
Civil Twilight 6:52 AM EDT 6:33 PM EDT
Nautical Twilight 6:20 AM EDT 7:05 PM EDT
Astronomical Twilight 5:48 AM EDT 7:37 PM EDT
Moon 7:56 AM EDT 6:43 PM EDT
Length of Visible Light 11h 41m
Length of Day
10h 44m
Tomorrow will be 2m 30s shorter.
New Moon, 0% of the Moon is Illuminated
Today
New Moon
Oct 30
First Quarter
Nov 6
Full
Nov 14
Last Quarter
Nov 22
New

Today's Extremes

State Highs State Lows

Community

WunderPhotos

Upload Photos

1,764,513 photos uploaded!

WunderBlogs® & News

Nearby

Snow Depth

Station Depth Elevation
No new snow has been reported.

Earthquake Activity

City Distance Mag. Time & Date
No recent earthquake activity has been reported nearby.
Minimum magnitude displayed is 2.5.

Coastal Water Temperatures

Place Temperature
No Stations Reporting

Nearby Weather Stations